KGLY

Details ICAO KGLY
Name CLINTON MEM
Region United States
Timezone America/Chicago (UTC-5.0)
Plans Departing 2
Arriving 7
Stats Elevation 822 ft / 251 m (AMSL)
Location 38.356574° -93.684178°
Runways 1
Magnetic Variation 1.014° E
Sunrise 2018-05-24 10:58:16 UTC / 2018-05-24 05:58:16 Local
Sunset 2018-05-25 01:27:48 UTC / 2018-05-24 20:27:48 Local
Advertisement - Login to hide

Runways

ID Width Length Bearing (true) Bearing (mag) Surface Threshold Offset Overrun Length
04 60 ft / 18 m 4,000 ft / 1,219 m 44.83° 43.82° Asphalt 0 ft / 0 m 0 ft / 0 m
22 60 ft / 18 m 4,000 ft / 1,219 m 224.83° 223.82° Asphalt 0 ft / 0 m 0 ft / 0 m

Map

Weather


0- 5 10 15 20 25 30 35+ Temperature / ° C

Clouds and Precipitation
Forecast for 2018-05-24 18:00 UTC. Updated 3 hours ago

Ground ~20,000 ft ~40,000 ft Winds

METAR

KGLY 241955Z AUTO 18008KT 10SM FEW040 29/19 A3007 RMK AO2

TAF

Not found

Frequencies

Unicom 122.80 MHz CTAF/UNICOM
Departure 125.92 MHz WHITEMAN DEP
Approach 127.45 MHz WHITEMAN APP
Warning: Do not use this data for real-world aviation or navigation. No guarantee of current accuracy is given.